createdAt,value
2023-11-18T00:00:59.760Z,99707.81
2023-11-18T00:03:26.433Z,99721.41
2023-11-18T00:05:52.966Z,99723.22
2023-11-18T00:08:19.472Z,99724.91
2023-11-18T00:10:46.044Z,99730.25
2023-11-18T00:13:12.566Z,99717.19
2023-11-18T00:15:39.101Z,99731.38
2023-11-18T00:18:05.703Z,99716.22
2023-11-18T00:20:32.630Z,99743.59
2023-11-18T00:22:59.413Z,99727.59
2023-11-18T00:25:26.056Z,99730.25
2023-11-18T00:27:52.550Z,99726.88
2023-11-18T00:30:19.197Z,99738.38
2023-11-18T00:32:46.112Z,99721.41
2023-11-18T00:35:12.793Z,99737.41
2023-11-18T00:37:39.331Z,99746.25
2023-11-18T00:40:07.788Z,99741.47
2023-11-18T00:42:34.356Z,99731.38
2023-11-18T00:45:00.902Z,99739.38
2023-11-18T00:47:27.557Z,99738.94
2023-11-18T00:49:55.054Z,99746.22
2023-11-18T00:52:21.678Z,99726.03
2023-11-18T00:54:48.210Z,99738.66
2023-11-18T00:57:14.780Z,99740.47
2023-11-18T00:59:44.852Z,99743.53
2023-11-18T01:02:11.927Z,99752.69
2023-11-18T01:04:38.710Z,99740.16
2023-11-18T01:07:05.368Z,99749.44
2023-11-18T01:09:37.687Z,99760.50
2023-11-18T01:12:08.377Z,99757.97
2023-11-18T01:14:37.308Z,99765.66
2023-11-18T01:17:06.257Z,99771.38
2023-11-18T01:19:34.739Z,99760.72
2023-11-18T01:22:01.937Z,99766.63
2023-11-18T01:24:29.375Z,99753.97
2023-11-18T01:26:55.918Z,99770.22
2023-11-18T01:29:23.433Z,99776.81
2023-11-18T01:31:52.749Z,99766.88
2023-11-18T01:34:23.706Z,99762.69
2023-11-18T01:36:50.780Z,99764.75
2023-11-18T01:39:18.971Z,99755.19
2023-11-18T01:41:46.841Z,99759.97
2023-11-18T01:44:16.088Z,99762.38
2023-11-18T01:46:46.496Z,99743.16
2023-11-18T01:49:19.307Z,99762.81
2023-11-18T01:51:47.645Z,99769.41
2023-11-18T01:54:17.250Z,99756.34
2023-11-18T01:56:48.335Z,99764.53
2023-11-18T01:59:21.126Z,99759.03
2023-11-18T02:01:50.447Z,99778.56
2023-11-18T02:04:17.508Z,99764.50
2023-11-18T02:06:46.079Z,99779.41
2023-11-18T02:09:13.976Z,99771.13
2023-11-18T02:12:05.442Z,99784.19
2023-11-18T02:14:34.294Z,99776.19
2023-11-18T02:17:04.730Z,99775.66
2023-11-18T02:19:32.475Z,99773.81
2023-11-18T02:21:59.214Z,99774.25
2023-11-18T02:24:31.822Z,99782.38
2023-11-18T02:26:59.085Z,99780.28
2023-11-18T02:29:27.416Z,99783.50
2023-11-18T02:32:02.626Z,99792.94
2023-11-18T02:34:33.340Z,99797.56
2023-11-18T02:37:04.251Z,99806.78
2023-11-18T02:39:40.404Z,99800.91
2023-11-18T02:42:11.851Z,99800.34
2023-11-18T02:44:39.424Z,99797.25
2023-11-18T02:47:06.316Z,99784.38
2023-11-18T02:49:35.450Z,99784.22
2023-11-18T02:52:01.982Z,99786.91
2023-11-18T02:54:29.306Z,99803.72
2023-11-18T02:56:56.071Z,99799.38
2023-11-18T02:59:22.992Z,99800.09
2023-11-18T03:01:49.676Z,99807.94
2023-11-18T03:04:17.096Z,99802.28
2023-11-18T03:06:43.687Z,99810.28
2023-11-18T03:09:11.603Z,99804.81
2023-11-18T03:11:38.813Z,99813.66
2023-11-18T03:14:06.081Z,99813.91
2023-11-18T03:16:32.904Z,99818.28
2023-11-18T03:19:00.067Z,99824.44
2023-11-18T03:21:28.038Z,99833.53
2023-11-18T03:23:54.559Z,99829.16
2023-11-18T03:26:21.048Z,99819.91
2023-11-18T03:28:47.701Z,99815.03
2023-11-18T03:31:15.258Z,99824.75
2023-11-18T03:33:42.166Z,99821.97
2023-11-18T03:36:09.616Z,99822.66
2023-11-18T03:38:36.144Z,99824.69
2023-11-18T03:41:02.687Z,99837.34
2023-11-18T03:43:29.851Z,99826.94
2023-11-18T03:45:57.692Z,99844.31
2023-11-18T03:48:24.874Z,99853.31
2023-11-18T03:50:51.775Z,99840.97
2023-11-18T03:53:18.476Z,99847.50
2023-11-18T03:55:44.978Z,99852.41
2023-11-18T03:58:11.504Z,99842.38
2023-11-18T04:00:38.037Z,99861.00
2023-11-18T04:03:08.909Z,99865.38
2023-11-18T04:05:36.111Z,99866.50
2023-11-18T04:08:02.832Z,99850.69
2023-11-18T04:10:29.409Z,99866.31
2023-11-18T04:12:55.931Z,99860.91
2023-11-18T04:15:22.441Z,99872.31
2023-11-18T04:17:49.097Z,99872.19
2023-11-18T04:20:17.271Z,99885.63
2023-11-18T04:22:44.924Z,99880.03
2023-11-18T04:25:12.718Z,99877.63
2023-11-18T04:27:39.585Z,99874.44
2023-11-18T04:30:07.463Z,99877.81
2023-11-18T04:32:34.348Z,99883.97
2023-11-18T04:35:07.989Z,99885.09
2023-11-18T04:37:35.888Z,99895.63
2023-11-18T04:40:02.939Z,99893.22
2023-11-18T04:42:30.818Z,99902.22
2023-11-18T04:44:57.852Z,99898.88
2023-11-18T04:47:26.260Z,99908.84
2023-11-18T04:49:53.355Z,99894.22
2023-11-18T04:52:20.036Z,99909.25
2023-11-18T04:54:49.170Z,99895.25
2023-11-18T04:57:16.125Z,99897.78
2023-11-18T04:59:44.187Z,99899.75
2023-11-18T05:02:10.904Z,99890.75
2023-11-18T05:04:37.523Z,99885.25
2023-11-18T05:07:05.347Z,99896.72
2023-11-18T05:09:32.431Z,99903.66
2023-11-18T05:12:00.105Z,99908.22
2023-11-18T05:14:27.588Z,99899.09
2023-11-18T05:16:55.018Z,99920.31
2023-11-18T05:19:21.695Z,99901.72
2023-11-18T05:21:50.738Z,99929.53
2023-11-18T05:24:17.529Z,99923.50
2023-11-18T05:26:44.090Z,99918.56
2023-11-18T05:29:11.234Z,99917.16
2023-11-18T05:31:38.503Z,99911.22
2023-11-18T05:34:05.922Z,99931.25
2023-11-18T05:36:38.321Z,99922.97
2023-11-18T05:39:06.351Z,99927.06
2023-11-18T05:41:33.390Z,99937.63
2023-11-18T05:43:59.983Z,99936.31
2023-11-18T05:46:31.332Z,99935.19
2023-11-18T05:48:58.426Z,99948.44
2023-11-18T05:51:27.819Z,99940.97
2023-11-18T05:53:54.514Z,99937.09
2023-11-18T05:56:23.940Z,99942.34
2023-11-18T05:58:51.078Z,99946.69
2023-11-18T06:01:18.666Z,99946.94
2023-11-18T06:03:45.583Z,99945.47
2023-11-18T06:06:15.080Z,99958.56
2023-11-18T06:08:44.719Z,99962.94
2023-11-18T06:11:15.408Z,99962.75
2023-11-18T06:13:47.827Z,99948.59
2023-11-18T06:16:21.699Z,99949.56
2023-11-18T06:18:50.400Z,99965.63
2023-11-18T06:21:21.287Z,99961.06
2023-11-18T06:23:49.154Z,99949.69
2023-11-18T06:26:16.735Z,99955.97
2023-11-18T06:28:45.234Z,99957.66
2023-11-18T06:31:13.023Z,99955.13
2023-11-18T06:33:46.924Z,99946.38
2023-11-18T06:36:19.477Z,99969.28
2023-11-18T06:38:47.732Z,99967.75
2023-11-18T06:41:16.398Z,99966.19
2023-11-18T06:43:58.739Z,99970.28
2023-11-18T06:46:26.917Z,99978.47
2023-11-18T06:48:58.617Z,99984.31
2023-11-18T06:51:28.347Z,99977.75
2023-11-18T06:53:56.474Z,99971.63
2023-11-18T06:56:26.734Z,99996.25
2023-11-18T06:58:54.045Z,99996.78
2023-11-18T07:01:20.985Z,99994.97
2023-11-18T07:03:54.882Z,99994.53
2023-11-18T07:06:23.852Z,99998.94
2023-11-18T07:08:51.098Z,99999.56
2023-11-18T07:11:17.963Z,100011.84
2023-11-18T07:13:49.014Z,100014.38
2023-11-18T07:16:15.791Z,100010.84
2023-11-18T07:18:45.278Z,100021.50
2023-11-18T07:21:11.941Z,100021.09
2023-11-18T07:23:38.506Z,100026.22
2023-11-18T07:26:05.285Z,100019.56
2023-11-18T07:28:32.451Z,100015.56
2023-11-18T07:31:00.784Z,100014.88
2023-11-18T07:33:28.109Z,100009.56
2023-11-18T07:35:55.128Z,100017.16
2023-11-18T07:38:21.670Z,100007.31
2023-11-18T07:40:48.818Z,100010.31
2023-11-18T07:43:16.398Z,100015.50
2023-11-18T07:45:43.381Z,100018.59
2023-11-18T07:48:13.225Z,100022.53
2023-11-18T07:50:45.714Z,100017.81
2023-11-18T07:53:12.747Z,100020.91
2023-11-18T07:55:42.268Z,100032.97
2023-11-18T07:58:13.138Z,100044.41
2023-11-18T08:00:43.722Z,100051.97
2023-11-18T08:03:14.599Z,100056.19
2023-11-18T08:05:46.394Z,100057.06
2023-11-18T08:08:18.563Z,100054.28
2023-11-18T08:10:46.077Z,100047.44
2023-11-18T08:13:12.701Z,100045.44
2023-11-18T08:15:41.059Z,100039.97
2023-11-18T08:18:08.371Z,100039.53
2023-11-18T08:20:34.951Z,100054.47
2023-11-18T08:23:01.581Z,100047.25
2023-11-18T08:25:28.141Z,100043.06
2023-11-18T08:27:54.755Z,100055.56
2023-11-18T08:30:22.044Z,100049.25
2023-11-18T08:32:49.363Z,100045.03
2023-11-18T08:35:16.874Z,100044.47
2023-11-18T08:37:44.346Z,100046.31
2023-11-18T08:40:21.461Z,100044.06
2023-11-18T08:42:51.582Z,100056.44
2023-11-18T08:45:30.417Z,100040.84
2023-11-18T08:47:58.273Z,100034.38
2023-11-18T08:50:25.733Z,100038.19
2023-11-18T08:52:59.206Z,100044.09
2023-11-18T08:55:43.859Z,100050.31
2023-11-18T08:58:28.948Z,100047.31
2023-11-18T09:01:14.932Z,100046.22
2023-11-18T09:04:03.060Z,100042.38
2023-11-18T09:06:30.200Z,100030.13
2023-11-18T09:08:59.503Z,100026.34
2023-11-18T09:11:33.692Z,100021.66
2023-11-18T09:14:02.102Z,100027.09
2023-11-18T09:16:31.048Z,100036.81
2023-11-18T09:19:00.839Z,100033.47
2023-11-18T09:21:30.579Z,100026.09
2023-11-18T09:24:00.158Z,100034.81
2023-11-18T09:26:31.377Z,100036.63
2023-11-18T09:28:59.349Z,100038.78
2023-11-18T09:31:25.931Z,100041.53
2023-11-18T09:33:58.558Z,100038.91
2023-11-18T09:36:25.249Z,100048.97
2023-11-18T09:38:51.768Z,100053.63
2023-11-18T09:41:18.563Z,100056.63
2023-11-18T09:43:47.240Z,100057.00
2023-11-18T09:46:25.781Z,100053.00
2023-11-18T09:48:54.569Z,100053.28
2023-11-18T09:51:23.503Z,100058.63
2023-11-18T09:53:53.600Z,100037.72
2023-11-18T09:56:47.183Z,100053.66
2023-11-18T09:59:36.000Z,100037.66
2023-11-18T10:02:05.769Z,100033.50
2023-11-18T10:04:32.918Z,100037.03
2023-11-18T10:07:00.705Z,100029.19
2023-11-18T10:09:38.371Z,100018.34
2023-11-18T10:12:08.619Z,100019.56
2023-11-18T10:14:45.010Z,100031.53
2023-11-18T10:17:15.635Z,100033.03
2023-11-18T10:19:58.780Z,100023.81
2023-11-18T10:22:27.474Z,100019.44
2023-11-18T10:24:57.873Z,100025.66
2023-11-18T10:27:29.433Z,100017.41
2023-11-18T10:29:57.636Z,100027.16
2023-11-18T10:32:28.563Z,100017.88
2023-11-18T10:34:57.875Z,100025.47
2023-11-18T10:37:26.460Z,100023.03
2023-11-18T10:39:52.997Z,100005.03
2023-11-18T10:42:19.583Z,100007.78
2023-11-18T10:44:59.325Z,100018.66
2023-11-18T10:47:30.161Z,100020.16
2023-11-18T10:49:57.547Z,100023.41
2023-11-18T10:52:27.218Z,100013.91
2023-11-18T10:54:57.342Z,100011.72
2023-11-18T10:57:25.125Z,100009.47
2023-11-18T11:00:14.048Z,100009.00
2023-11-18T11:02:42.630Z,100000.09
2023-11-18T11:05:19.739Z,100006.59
2023-11-18T11:07:49.961Z,100011.19
2023-11-18T11:10:17.597Z,100022.84
2023-11-18T11:12:53.442Z,100047.34
2023-11-18T11:15:24.145Z,100036.00
2023-11-18T11:18:03.762Z,100040.69
2023-11-18T11:20:33.856Z,100048.91
2023-11-18T11:23:29.544Z,100054.66
2023-11-18T11:26:05.821Z,100057.91
2023-11-18T11:28:44.974Z,100068.75
2023-11-18T11:31:25.383Z,100067.31
2023-11-18T11:34:00.471Z,100078.19
2023-11-18T11:36:34.627Z,100097.09
2023-11-18T11:39:02.295Z,100093.38
2023-11-18T11:41:30.159Z,100094.00
2023-11-18T11:43:59.062Z,100095.78
2023-11-18T11:46:34.338Z,100108.25
2023-11-18T11:49:09.188Z,100097.47
2023-11-18T11:51:41.420Z,100117.63
2023-11-18T11:54:24.173Z,100106.88
2023-11-18T11:56:56.948Z,100105.53
2023-11-18T11:59:42.894Z,100106.88
2023-11-18T12:02:17.168Z,100115.09
2023-11-18T12:04:45.620Z,100124.69
2023-11-18T12:09:48.248Z,100115.94
2023-11-18T12:12:20.473Z,100131.22
2023-11-18T12:15:12.917Z,100135.16
2023-11-18T12:17:59.526Z,100133.78
2023-11-18T12:20:58.940Z,100143.47
2023-11-18T12:23:26.647Z,100136.19
2023-11-18T12:25:58.006Z,100137.47
2023-11-18T12:28:35.450Z,100139.66
2023-11-18T12:31:18.405Z,100142.94
2023-11-18T12:33:54.349Z,100146.09
2023-11-18T12:36:30.956Z,100151.38
2023-11-18T12:39:17.749Z,100152.75
2023-11-18T12:41:44.969Z,100138.44
2023-11-18T12:44:33.088Z,100132.44
2023-11-18T12:47:15.407Z,100139.81
2023-11-18T12:49:43.565Z,100132.91
2023-11-18T12:52:19.629Z,100154.59
2023-11-18T12:54:51.998Z,100153.28
2023-11-18T12:57:23.739Z,100153.44
2023-11-18T12:59:51.351Z,100151.19
2023-11-18T13:02:21.347Z,100151.75
2023-11-18T13:04:51.372Z,100160.69
2023-11-18T13:07:19.873Z,100151.75
2023-11-18T13:09:47.198Z,100156.88
2023-11-18T13:12:21.181Z,100150.44
2023-11-18T13:14:48.705Z,100145.22
2023-11-18T13:17:18.779Z,100137.97
2023-11-18T13:19:46.287Z,100141.88
2023-11-18T13:22:15.414Z,100147.84
2023-11-18T13:24:45.820Z,100148.84
2023-11-18T13:27:15.260Z,100146.06
2023-11-18T13:29:46.599Z,100145.75
2023-11-18T13:32:13.834Z,100151.34
2023-11-18T13:34:43.361Z,100159.69
2023-11-18T13:37:14.050Z,100166.06
2023-11-18T13:39:42.764Z,100165.06
2023-11-18T13:42:29.480Z,100168.59
2023-11-18T13:45:09.534Z,100179.03
2023-11-18T13:47:38.044Z,100187.50
2023-11-18T13:50:09.754Z,100187.13
2023-11-18T13:52:38.632Z,100192.63
2023-11-18T13:55:10.398Z,100192.88
2023-11-18T13:57:37.838Z,100184.16
2023-11-18T14:00:07.872Z,100186.72
2023-11-18T14:02:37.210Z,100189.28
2023-11-18T14:05:04.288Z,100187.34
2023-11-18T14:07:30.827Z,100197.78
2023-11-18T14:09:58.011Z,100191.88
2023-11-18T14:12:28.794Z,100200.47
2023-11-18T14:14:55.467Z,100200.59
2023-11-18T14:17:22.833Z,100196.56
2023-11-18T14:19:49.430Z,100199.50
2023-11-18T14:22:15.969Z,100194.47
2023-11-18T14:24:42.527Z,100208.44
2023-11-18T14:27:11.380Z,100211.78
2023-11-18T14:29:39.195Z,100222.38
2023-11-18T14:32:07.373Z,100219.69
2023-11-18T14:34:34.497Z,100221.84
2023-11-18T14:37:02.861Z,100217.66
2023-11-18T14:39:29.383Z,100230.91
2023-11-18T14:41:55.863Z,100227.53
2023-11-18T14:44:22.471Z,100240.50
2023-11-18T14:46:49.157Z,100226.28
2023-11-18T14:49:15.742Z,100229.13
2023-11-18T14:51:44.410Z,100235.31
2023-11-18T14:54:11.016Z,100240.81
2023-11-18T14:56:37.937Z,100242.50
2023-11-18T14:59:06.875Z,100240.81
2023-11-18T15:01:33.835Z,100235.75
2023-11-18T15:04:00.584Z,100249.13
2023-11-18T15:06:27.867Z,100237.88
2023-11-18T15:08:55.040Z,100250.97
2023-11-18T15:11:25.185Z,100242.38
2023-11-18T15:13:54.520Z,100239.97
2023-11-18T15:16:21.748Z,100245.63
2023-11-18T15:18:48.922Z,100250.13
2023-11-18T15:21:16.377Z,100245.34
2023-11-18T15:23:43.361Z,100234.34
2023-11-18T15:26:10.966Z,100240.13
2023-11-18T15:28:38.033Z,100242.91
2023-11-18T15:31:05.512Z,100264.47
2023-11-18T15:33:32.785Z,100261.63
2023-11-18T15:35:59.721Z,100287.25
2023-11-18T15:38:26.292Z,100286.41
2023-11-18T15:40:53.029Z,100289.78
2023-11-18T15:43:20.656Z,100296.69
2023-11-18T15:45:47.501Z,100283.16
2023-11-18T15:48:15.726Z,100287.97
2023-11-18T15:50:42.936Z,100259.78
2023-11-18T15:53:09.830Z,100275.00
2023-11-18T15:55:39.495Z,100282.75
2023-11-18T15:58:06.155Z,100275.13
2023-11-18T16:00:32.876Z,100267.97
2023-11-18T16:03:02.834Z,100278.09
2023-11-18T16:05:35.668Z,100277.94
2023-11-18T16:08:05.257Z,100264.41
2023-11-18T16:10:32.297Z,100273.88
2023-11-18T16:12:59.693Z,100272.28
2023-11-18T16:15:28.393Z,100291.69
2023-11-18T16:17:58.065Z,100290.81
2023-11-18T16:20:27.125Z,100294.91
2023-11-18T16:22:54.944Z,100287.09
2023-11-18T16:25:23.985Z,100295.53
2023-11-18T16:27:55.173Z,100310.94
2023-11-18T16:30:25.852Z,100308.88
2023-11-18T16:32:53.470Z,100293.94
2023-11-18T16:35:21.447Z,100312.75
2023-11-18T16:37:48.296Z,100322.34
2023-11-18T16:40:15.841Z,100311.06
2023-11-18T16:42:43.339Z,100327.56
2023-11-18T16:45:10.838Z,100333.78
2023-11-18T16:47:38.138Z,100330.84
2023-11-18T16:50:05.504Z,100329.69
2023-11-18T16:52:32.369Z,100331.78
2023-11-18T16:54:58.966Z,100329.28
2023-11-18T16:57:27.106Z,100331.97
2023-11-18T16:59:54.014Z,100328.56
2023-11-18T17:02:20.659Z,100336.03
2023-11-18T17:04:47.195Z,100321.09
2023-11-18T17:07:15.106Z,100338.81
2023-11-18T17:09:42.368Z,100332.84
2023-11-18T17:12:09.166Z,100341.84
2023-11-18T17:14:35.746Z,100330.25
2023-11-18T17:17:02.397Z,100340.13
2023-11-18T17:19:29.351Z,100340.22
2023-11-18T17:21:55.867Z,100353.13
2023-11-18T17:24:22.425Z,100352.41
2023-11-18T17:26:48.901Z,100354.81
2023-11-18T17:29:15.505Z,100355.19
2023-11-18T17:31:42.687Z,100351.09
2023-11-18T17:34:13.271Z,100355.38
2023-11-18T17:36:39.800Z,100356.25
2023-11-18T17:39:07.912Z,100358.59
2023-11-18T17:41:36.136Z,100363.47
2023-11-18T17:44:02.690Z,100348.09
2023-11-18T17:46:29.208Z,100360.91
2023-11-18T17:48:55.720Z,100363.47
2023-11-18T17:51:24.151Z,100359.81
2023-11-18T17:53:50.868Z,100347.50
2023-11-18T17:56:17.369Z,100348.59
2023-11-18T17:58:44.771Z,100344.81
2023-11-18T18:01:11.426Z,100342.88
2023-11-18T18:03:38.018Z,100343.75
2023-11-18T18:06:04.796Z,100352.09
2023-11-18T18:08:31.455Z,100361.63
2023-11-18T18:10:58.076Z,100360.53
2023-11-18T18:13:24.613Z,100355.75
2023-11-18T18:15:51.159Z,100361.72
2023-11-18T18:18:17.725Z,100366.31
2023-11-18T18:20:49.166Z,100365.81
2023-11-18T18:23:16.747Z,100356.81
2023-11-18T18:25:43.676Z,100361.75
2023-11-18T18:28:10.184Z,100348.19
2023-11-18T18:30:38.031Z,100336.66
2023-11-18T18:33:05.758Z,100338.78
2023-11-18T18:35:32.588Z,100349.16
2023-11-18T18:37:59.169Z,100337.81
2023-11-18T18:40:25.751Z,100341.97
2023-11-18T18:42:52.651Z,100344.19
2023-11-18T18:45:19.693Z,100347.41
2023-11-18T18:47:46.340Z,100351.66
2023-11-18T18:50:14.032Z,100344.72
2023-11-18T18:52:41.305Z,100345.19
2023-11-18T18:55:08.735Z,100341.44
2023-11-18T18:57:35.246Z,100344.84
2023-11-18T19:00:01.841Z,100334.94
2023-11-18T19:02:28.503Z,100340.47
2023-11-18T19:04:55.208Z,100343.28
2023-11-18T19:07:22.346Z,100359.63
2023-11-18T19:09:50.021Z,100356.31
2023-11-18T19:12:16.613Z,100346.47
2023-11-18T19:14:43.359Z,100328.03
2023-11-18T19:17:10.577Z,100338.72
2023-11-18T19:19:37.436Z,100335.94
2023-11-18T19:22:06.607Z,100327.78
2023-11-18T19:24:33.698Z,100330.97
2023-11-18T19:27:01.509Z,100341.06
2023-11-18T19:29:28.189Z,100356.28
2023-11-18T19:31:55.191Z,100368.75
2023-11-18T19:34:22.748Z,100364.50
2023-11-18T19:36:49.625Z,100361.09
2023-11-18T19:39:16.198Z,100347.53
2023-11-18T19:41:42.821Z,100354.25
2023-11-18T19:44:09.831Z,100355.47
2023-11-18T19:46:36.378Z,100366.53
2023-11-18T19:49:02.915Z,100362.19
2023-11-18T19:51:29.926Z,100369.72
2023-11-18T19:53:56.476Z,100364.50
2023-11-18T19:56:24.417Z,100374.06
2023-11-18T19:58:51.062Z,100382.78
2023-11-18T20:01:19.355Z,100386.41
2023-11-18T20:03:46.838Z,100391.91
2023-11-18T20:06:14.514Z,100389.88
2023-11-18T20:08:41.714Z,100370.97
2023-11-18T20:11:10.520Z,100368.53
2023-11-18T20:13:37.571Z,100369.16
2023-11-18T20:16:06.351Z,100350.59
2023-11-18T20:18:33.628Z,100360.41
2023-11-18T20:21:00.103Z,100353.38
2023-11-18T20:23:27.749Z,100369.38
2023-11-18T20:25:54.313Z,100389.28
2023-11-18T20:28:20.876Z,100372.94
2023-11-18T20:30:47.378Z,100382.00
2023-11-18T20:33:14.258Z,100386.97
2023-11-18T20:35:41.664Z,100374.34
2023-11-18T20:38:08.206Z,100394.22
2023-11-18T20:40:34.701Z,100380.81
2023-11-18T20:43:02.773Z,100396.66
2023-11-18T20:45:29.368Z,100388.66
2023-11-18T20:47:56.144Z,100396.66
2023-11-18T20:50:22.756Z,100400.78
2023-11-18T20:52:50.482Z,100400.53
2023-11-18T20:57:52.570Z,100387.22
2023-11-18T21:00:20.868Z,100408.66
2023-11-18T21:02:47.714Z,100402.41
2023-11-18T21:05:15.021Z,100425.41
2023-11-18T21:07:41.769Z,100415.31
2023-11-18T21:10:09.055Z,100406.63
2023-11-18T21:12:35.933Z,100395.72
2023-11-18T21:15:05.496Z,100410.97
2023-11-18T21:17:32.722Z,100403.25
2023-11-18T21:19:59.355Z,100439.09
2023-11-18T21:22:25.874Z,100432.69
2023-11-18T21:24:54.488Z,100438.75
2023-11-18T21:27:21.033Z,100444.81
2023-11-18T21:29:48.009Z,100445.28
2023-11-18T21:32:14.666Z,100431.97
2023-11-18T21:34:45.949Z,100421.16
2023-11-18T21:37:12.584Z,100404.69
2023-11-18T21:39:42.079Z,100420.19
2023-11-18T21:42:09.614Z,100406.72
2023-11-18T21:44:36.658Z,100413.53
2023-11-18T21:47:03.488Z,100398.25
2023-11-18T21:49:30.361Z,100413.69
2023-11-18T21:51:56.914Z,100423.50
2023-11-18T21:54:26.028Z,100420.09
2023-11-18T21:56:53.188Z,100392.34
2023-11-18T21:59:19.867Z,100397.91
2023-11-18T22:01:46.385Z,100397.31
2023-11-18T22:04:12.991Z,100417.31
2023-11-18T22:06:39.587Z,100400.09
2023-11-18T22:09:06.622Z,100392.44
2023-11-18T22:14:04.273Z,100404.22
2023-11-18T22:16:30.892Z,100411.81
2023-11-18T22:18:57.365Z,100401.75
2023-11-18T22:21:24.709Z,100417.25
2023-11-18T22:23:51.260Z,100407.94
2023-11-18T22:26:17.778Z,100368.09
2023-11-18T22:28:45.884Z,100386.13
2023-11-18T22:31:12.397Z,100382.38
2023-11-18T22:33:39.413Z,100390.84
2023-11-18T22:36:08.810Z,100393.78
2023-11-18T22:38:35.482Z,100392.56
2023-11-18T22:41:05.126Z,100393.78
2023-11-18T22:43:31.709Z,100371.25
2023-11-18T22:45:58.285Z,100376.56
2023-11-18T22:48:24.771Z,100354.78
2023-11-18T22:50:51.335Z,100343.50
2023-11-18T22:53:18.386Z,100363.75
2023-11-18T22:55:45.770Z,100387.59
2023-11-18T22:58:13.849Z,100391.81
2023-11-18T23:00:42.935Z,100376.38
2023-11-18T23:03:10.305Z,100387.47
2023-11-18T23:05:39.930Z,100387.69
2023-11-18T23:08:09.318Z,100393.75
2023-11-18T23:10:39.851Z,100399.44
2023-11-18T23:13:07.304Z,100384.91
2023-11-18T23:15:36.487Z,100370.81
2023-11-18T23:18:05.311Z,100366.72
2023-11-18T23:20:32.596Z,100368.63
2023-11-18T23:23:01.054Z,100360.75
2023-11-18T23:25:27.596Z,100359.22
2023-11-18T23:30:23.533Z,100371.47
2023-11-18T23:32:50.801Z,100352.22
2023-11-18T23:35:19.371Z,100342.56
2023-11-18T23:37:46.702Z,100347.03
2023-11-18T23:40:14.526Z,100333.22
2023-11-18T23:42:43.714Z,100342.63
2023-11-18T23:45:14.995Z,100339.66
2023-11-18T23:47:42.848Z,100353.34
2023-11-18T23:50:10.791Z,100356.41
2023-11-18T23:52:37.293Z,100332.19
2023-11-18T23:55:05.430Z,100340.91
2023-11-18T23:57:32.517Z,100351.75
